sensor_id;sensor_type;location;lat;lon;timestamp;temperature;humidity
48019;DHT22;33786;48.690;9.562;2023-04-01T00:01:12;9.10;99.90
48019;DHT22;33786;48.690;9.562;2023-04-01T00:03:43;9.10;99.90
48019;DHT22;33786;48.690;9.562;2023-04-01T00:06:14;9.00;99.90
48019;DHT22;33786;48.690;9.562;2023-04-01T00:08:41;9.00;99.90
48019;DHT22;33786;48.690;9.562;2023-04-01T00:11:08;9.00;99.90
48019;DHT22;33786;48.690;9.562;2023-04-01T00:13:34;9.00;99.90
48019;DHT22;33786;48.690;9.562;2023-04-01T00:16:02;9.00;99.90
48019;DHT22;33786;48.690;9.562;2023-04-01T00:18:45;9.00;99.90
48019;DHT22;33786;48.690;9.562;2023-04-01T00:21:13;9.00;99.90
48019;DHT22;33786;48.690;9.562;2023-04-01T00:23:40;9.00;99.90
48019;DHT22;33786;48.690;9.562;2023-04-01T00:26:07;9.00;99.90
48019;DHT22;33786;48.690;9.562;2023-04-01T00:28:33;9.10;99.90
48019;DHT22;33786;48.690;9.562;2023-04-01T00:31:03;9.10;99.90
48019;DHT22;33786;48.690;9.562;2023-04-01T00:33:30;9.20;99.90
48019;DHT22;33786;48.690;9.562;2023-04-01T00:36:05;9.20;99.90
48019;DHT22;33786;48.690;9.562;2023-04-01T00:38:31;9.20;99.90
48019;DHT22;33786;48.690;9.562;2023-04-01T00:40:58;9.10;99.90
48019;DHT22;33786;48.690;9.562;2023-04-01T00:43:26;9.00;99.90
48019;DHT22;33786;48.690;9.562;2023-04-01T00:45:53;8.90;99.90
48019;DHT22;33786;48.690;9.562;2023-04-01T00:48:20;9.10;99.90
48019;DHT22;33786;48.690;9.562;2023-04-01T00:50:50;9.00;99.90
48019;DHT22;33786;48.690;9.562;2023-04-01T00:53:18;9.00;99.90
48019;DHT22;33786;48.690;9.562;2023-04-01T00:55:48;8.90;99.90
48019;DHT22;33786;48.690;9.562;2023-04-01T00:58:17;8.90;99.90
48019;DHT22;33786;48.690;9.562;2023-04-01T01:00:45;8.90;99.90
48019;DHT22;33786;48.690;9.562;2023-04-01T01:03:13;9.00;99.90
48019;DHT22;33786;48.690;9.562;2023-04-01T01:10:48;9.10;99.90
48019;DHT22;33786;48.690;9.562;2023-04-01T01:18:39;9.10;99.90
48019;DHT22;33786;48.690;9.562;2023-04-01T01:26:40;9.00;99.90
48019;DHT22;33786;48.690;9.562;2023-04-01T01:34:30;8.90;99.90
48019;DHT22;33786;48.690;9.562;2023-04-01T01:37:08;8.90;99.90
48019;DHT22;33786;48.690;9.562;2023-04-01T01:39:36;8.80;99.90
48019;DHT22;33786;48.690;9.562;2023-04-01T01:42:04;8.80;99.90
48019;DHT22;33786;48.690;9.562;2023-04-01T01:44:31;8.90;99.90
48019;DHT22;33786;48.690;9.562;2023-04-01T01:46:59;8.90;99.90
48019;DHT22;33786;48.690;9.562;2023-04-01T01:49:27;8.90;99.90
48019;DHT22;33786;48.690;9.562;2023-04-01T01:51:56;8.90;99.90
48019;DHT22;33786;48.690;9.562;2023-04-01T01:54:23;8.90;99.90
48019;DHT22;33786;48.690;9.562;2023-04-01T01:56:52;8.80;99.90
48019;DHT22;33786;48.690;9.562;2023-04-01T01:59:22;8.70;99.90
48019;DHT22;33786;48.690;9.562;2023-04-01T02:01:52;8.70;99.90
48019;DHT22;33786;48.690;9.562;2023-04-01T02:04:21;8.70;99.90
48019;DHT22;33786;48.690;9.562;2023-04-01T02:06:59;8.70;99.90
48019;DHT22;33786;48.690;9.562;2023-04-01T02:09:27;8.80;99.90
48019;DHT22;33786;48.690;9.562;2023-04-01T02:11:56;8.70;99.90
48019;DHT22;33786;48.690;9.562;2023-04-01T02:14:24;8.70;99.90
48019;DHT22;33786;48.690;9.562;2023-04-01T02:16:56;8.60;99.90
48019;DHT22;33786;48.690;9.562;2023-04-01T02:19:24;8.50;99.90
48019;DHT22;33786;48.690;9.562;2023-04-01T02:21:53;8.50;99.90
48019;DHT22;33786;48.690;9.562;2023-04-01T02:24:21;8.40;99.90
48019;DHT22;33786;48.690;9.562;2023-04-01T02:26:50;8.40;99.90
48019;DHT22;33786;48.690;9.562;2023-04-01T02:29:18;8.40;99.90
48019;DHT22;33786;48.690;9.562;2023-04-01T02:31:46;8.40;99.90
48019;DHT22;33786;48.690;9.562;2023-04-01T02:34:13;8.40;99.90
48019;DHT22;33786;48.690;9.562;2023-04-01T02:36:40;8.40;99.90
48019;DHT22;33786;48.690;9.562;2023-04-01T02:39:06;8.40;99.90
48019;DHT22;33786;48.690;9.562;2023-04-01T02:41:40;8.40;99.90
48019;DHT22;33786;48.690;9.562;2023-04-01T02:44:07;8.20;99.90
48019;DHT22;33786;48.690;9.562;2023-04-01T02:46:34;8.30;99.90
48019;DHT22;33786;48.690;9.562;2023-04-01T02:49:01;8.30;99.90
48019;DHT22;33786;48.690;9.562;2023-04-01T02:51:27;8.20;99.90
48019;DHT22;33786;48.690;9.562;2023-04-01T02:53:56;8.20;99.90
48019;DHT22;33786;48.690;9.562;2023-04-01T02:56:22;8.20;99.90
48019;DHT22;33786;48.690;9.562;2023-04-01T02:58:49;8.20;99.90
48019;DHT22;33786;48.690;9.562;2023-04-01T03:01:17;8.30;99.90
48019;DHT22;33786;48.690;9.562;2023-04-01T03:03:43;8.30;99.90
48019;DHT22;33786;48.690;9.562;2023-04-01T03:06:11;8.20;99.90
48019;DHT22;33786;48.690;9.562;2023-04-01T03:08:38;8.20;99.90
48019;DHT22;33786;48.690;9.562;2023-04-01T03:11:05;8.10;99.90
48019;DHT22;33786;48.690;9.562;2023-04-01T03:13:32;8.10;99.90
48019;DHT22;33786;48.690;9.562;2023-04-01T03:15:59;8.10;99.90
48019;DHT22;33786;48.690;9.562;2023-04-01T03:18:25;8.00;99.90
48019;DHT22;33786;48.690;9.562;2023-04-01T03:20:52;8.00;99.90
48019;DHT22;33786;48.690;9.562;2023-04-01T03:23:19;8.00;99.90
48019;DHT22;33786;48.690;9.562;2023-04-01T03:25:47;7.90;99.90
48019;DHT22;33786;48.690;9.562;2023-04-01T03:28:15;7.90;99.90
48019;DHT22;33786;48.690;9.562;2023-04-01T03:30:42;7.80;99.90
48019;DHT22;33786;48.690;9.562;2023-04-01T03:33:08;7.70;99.90
48019;DHT22;33786;48.690;9.562;2023-04-01T03:35:35;7.80;99.90
48019;DHT22;33786;48.690;9.562;2023-04-01T03:38:02;7.80;99.90
48019;DHT22;33786;48.690;9.562;2023-04-01T03:40:29;7.70;99.90
48019;DHT22;33786;48.690;9.562;2023-04-01T03:42:55;7.80;99.90
48019;DHT22;33786;48.690;9.562;2023-04-01T03:45:22;7.80;99.90
48019;DHT22;33786;48.690;9.562;2023-04-01T03:47:49;7.70;99.90
48019;DHT22;33786;48.690;9.562;2023-04-01T03:50:16;7.70;99.90
48019;DHT22;33786;48.690;9.562;2023-04-01T03:52:43;7.70;99.90
48019;DHT22;33786;48.690;9.562;2023-04-01T03:55:10;7.70;99.90
48019;DHT22;33786;48.690;9.562;2023-04-01T03:57:37;7.80;99.90
48019;DHT22;33786;48.690;9.562;2023-04-01T04:00:03;7.80;99.90
48019;DHT22;33786;48.690;9.562;2023-04-01T04:02:30;7.80;99.90
48019;DHT22;33786;48.690;9.562;2023-04-01T04:04:57;7.80;99.90
48019;DHT22;33786;48.690;9.562;2023-04-01T04:07:24;7.90;99.90
48019;DHT22;33786;48.690;9.562;2023-04-01T04:09:50;7.80;99.90
48019;DHT22;33786;48.690;9.562;2023-04-01T04:12:17;7.90;99.90
48019;DHT22;33786;48.690;9.562;2023-04-01T04:14:44;7.90;99.90
48019;DHT22;33786;48.690;9.562;2023-04-01T04:17:11;7.80;99.90
48019;DHT22;33786;48.690;9.562;2023-04-01T04:19:42;7.70;99.90
48019;DHT22;33786;48.690;9.562;2023-04-01T04:22:09;7.70;99.90
48019;DHT22;33786;48.690;9.562;2023-04-01T04:24:36;7.70;99.90
48019;DHT22;33786;48.690;9.562;2023-04-01T04:27:03;7.60;99.90
48019;DHT22;33786;48.690;9.562;2023-04-01T04:29:30;7.70;99.90
48019;DHT22;33786;48.690;9.562;2023-04-01T04:31:57;7.60;99.90
48019;DHT22;33786;48.690;9.562;2023-04-01T04:34:24;7.50;99.90
48019;DHT22;33786;48.690;9.562;2023-04-01T04:36:50;7.40;99.90
48019;DHT22;33786;48.690;9.562;2023-04-01T04:39:17;7.40;99.90
48019;DHT22;33786;48.690;9.562;2023-04-01T04:41:44;7.30;99.90
48019;DHT22;33786;48.690;9.562;2023-04-01T04:44:10;7.40;99.90
48019;DHT22;33786;48.690;9.562;2023-04-01T04:46:37;7.40;99.90
48019;DHT22;33786;48.690;9.562;2023-04-01T04:49:05;7.40;99.90
48019;DHT22;33786;48.690;9.562;2023-04-01T04:51:32;7.40;99.90
48019;DHT22;33786;48.690;9.562;2023-04-01T04:54:02;7.40;99.90
48019;DHT22;33786;48.690;9.562;2023-04-01T04:56:29;7.40;99.90
48019;DHT22;33786;48.690;9.562;2023-04-01T04:58:57;7.40;99.90
48019;DHT22;33786;48.690;9.562;2023-04-01T05:01:24;7.40;99.90
48019;DHT22;33786;48.690;9.562;2023-04-01T05:03:51;7.40;99.90
48019;DHT22;33786;48.690;9.562;2023-04-01T05:06:20;7.40;99.90
48019;DHT22;33786;48.690;9.562;2023-04-01T05:08:49;7.60;99.90
48019;DHT22;33786;48.690;9.562;2023-04-01T05:11:16;7.50;99.90
48019;DHT22;33786;48.690;9.562;2023-04-01T05:13:43;7.60;99.90
48019;DHT22;33786;48.690;9.562;2023-04-01T05:16:11;7.70;99.90
48019;DHT22;33786;48.690;9.562;2023-04-01T05:18:38;7.70;99.90
48019;DHT22;33786;48.690;9.562;2023-04-01T05:21:06;7.80;99.90
48019;DHT22;33786;48.690;9.562;2023-04-01T05:23:33;7.90;99.90
48019;DHT22;33786;48.690;9.562;2023-04-01T05:26:07;8.00;99.90
48019;DHT22;33786;48.690;9.562;2023-04-01T05:28:33;8.10;99.90
48019;DHT22;33786;48.690;9.562;2023-04-01T05:31:01;8.20;99.90
48019;DHT22;33786;48.690;9.562;2023-04-01T05:33:28;8.20;99.90
48019;DHT22;33786;48.690;9.562;2023-04-01T05:35:55;8.20;99.90
48019;DHT22;33786;48.690;9.562;2023-04-01T05:38:21;8.40;99.90
48019;DHT22;33786;48.690;9.562;2023-04-01T05:40:48;8.40;99.90
48019;DHT22;33786;48.690;9.562;2023-04-01T05:43:15;8.50;99.90
48019;DHT22;33786;48.690;9.562;2023-04-01T05:45:41;8.50;99.90
48019;DHT22;33786;48.690;9.562;2023-04-01T05:48:08;8.60;99.90
48019;DHT22;33786;48.690;9.562;2023-04-01T05:50:35;8.70;99.90
48019;DHT22;33786;48.690;9.562;2023-04-01T05:53:01;8.60;99.90
48019;DHT22;33786;48.690;9.562;2023-04-01T05:55:28;8.60;99.90
48019;DHT22;33786;48.690;9.562;2023-04-01T05:57:55;8.60;99.90
48019;DHT22;33786;48.690;9.562;2023-04-01T06:00:21;8.60;99.90
48019;DHT22;33786;48.690;9.562;2023-04-01T06:02:48;8.60;99.90
48019;DHT22;33786;48.690;9.562;2023-04-01T06:05:19;8.60;99.90
48019;DHT22;33786;48.690;9.562;2023-04-01T06:07:47;8.70;99.90
48019;DHT22;33786;48.690;9.562;2023-04-01T06:10:15;8.70;99.90
48019;DHT22;33786;48.690;9.562;2023-04-01T06:13:04;8.90;99.90
48019;DHT22;33786;48.690;9.562;2023-04-01T06:15:36;9.20;99.90
48019;DHT22;33786;48.690;9.562;2023-04-01T06:23:22;10.80;99.90
48019;DHT22;33786;48.690;9.562;2023-04-01T06:39:11;10.30;99.90
48019;DHT22;33786;48.690;9.562;2023-04-01T06:46:47;10.80;99.60
48019;DHT22;33786;48.690;9.562;2023-04-01T06:51:52;10.90;99.90
48019;DHT22;33786;48.690;9.562;2023-04-01T06:54:24;10.70;99.90
48019;DHT22;33786;48.690;9.562;2023-04-01T06:56:53;10.60;99.80
48019;DHT22;33786;48.690;9.562;2023-04-01T06:59:22;10.50;99.90
48019;DHT22;33786;48.690;9.562;2023-04-01T07:01:59;10.50;99.90
48019;DHT22;33786;48.690;9.562;2023-04-01T07:04:31;10.60;99.90
48019;DHT22;33786;48.690;9.562;2023-04-01T07:06:59;10.70;99.90
48019;DHT22;33786;48.690;9.562;2023-04-01T07:09:30;10.70;99.90
48019;DHT22;33786;48.690;9.562;2023-04-01T07:11:59;10.60;99.70
48019;DHT22;33786;48.690;9.562;2023-04-01T07:14:33;10.40;99.90
48019;DHT22;33786;48.690;9.562;2023-04-01T07:20:05;10.20;99.90
48019;DHT22;33786;48.690;9.562;2023-04-01T07:22:46;10.10;99.90
48019;DHT22;33786;48.690;9.562;2023-04-01T07:27:41;10.00;99.90
48019;DHT22;33786;48.690;9.562;2023-04-01T07:30:15;10.00;99.90
48019;DHT22;33786;48.690;9.562;2023-04-01T07:33:04;10.10;99.90
48019;DHT22;33786;48.690;9.562;2023-04-01T07:35:38;10.00;99.90
48019;DHT22;33786;48.690;9.562;2023-04-01T07:40:42;10.10;99.90
48019;DHT22;33786;48.690;9.562;2023-04-01T07:45:54;10.20;99.90
48019;DHT22;33786;48.690;9.562;2023-04-01T07:48:33;10.20;99.90
48019;DHT22;33786;48.690;9.562;2023-04-01T07:51:06;10.30;99.90
48019;DHT22;33786;48.690;9.562;2023-04-01T07:53:45;10.30;99.90
48019;DHT22;33786;48.690;9.562;2023-04-01T07:56:26;10.40;99.90
48019;DHT22;33786;48.690;9.562;2023-04-01T08:01:36;10.40;99.90
48019;DHT22;33786;48.690;9.562;2023-04-01T08:06:57;10.30;99.90
48019;DHT22;33786;48.690;9.562;2023-04-01T08:09:30;10.30;99.90
48019;DHT22;33786;48.690;9.562;2023-04-01T08:18:12;10.40;99.90
48019;DHT22;33786;48.690;9.562;2023-04-01T08:23:40;10.30;99.90
48019;DHT22;33786;48.690;9.562;2023-04-01T08:25:48;10.30;99.90
48019;DHT22;33786;48.690;9.562;2023-04-01T08:28:19;10.40;99.90
48019;DHT22;33786;48.690;9.562;2023-04-01T08:30:49;10.40;99.90
48019;DHT22;33786;48.690;9.562;2023-04-01T08:35:51;10.40;99.90
48019;DHT22;33786;48.690;9.562;2023-04-01T08:38:30;10.30;99.90
48019;DHT22;33786;48.690;9.562;2023-04-01T08:40:58;10.30;99.90
48019;DHT22;33786;48.690;9.562;2023-04-01T08:46:06;10.30;99.90
48019;DHT22;33786;48.690;9.562;2023-04-01T08:56:31;10.10;99.90
48019;DHT22;33786;48.690;9.562;2023-04-01T09:13:26;10.50;99.90
48019;DHT22;33786;48.690;9.562;2023-04-01T09:18:22;10.40;99.90
48019;DHT22;33786;48.690;9.562;2023-04-01T09:28:38;10.00;99.90
48019;DHT22;33786;48.690;9.562;2023-04-01T09:38:59;9.90;99.90
48019;DHT22;33786;48.690;9.562;2023-04-01T09:41:39;9.80;99.90
48019;DHT22;33786;48.690;9.562;2023-04-01T09:46:48;9.80;99.90
48019;DHT22;33786;48.690;9.562;2023-04-01T10:04:55;10.20;99.90
48019;DHT22;33786;48.690;9.562;2023-04-01T10:20:51;10.10;99.90
48019;DHT22;33786;48.690;9.562;2023-04-01T10:28:30;9.90;99.90
48019;DHT22;33786;48.690;9.562;2023-04-01T10:36:43;10.10;99.90
48019;DHT22;33786;48.690;9.562;2023-04-01T11:01:16;9.90;99.90
48019;DHT22;33786;48.690;9.562;2023-04-01T11:20:18;10.20;99.90
48019;DHT22;33786;48.690;9.562;2023-04-01T11:42:49;10.70;99.90
48019;DHT22;33786;48.690;9.562;2023-04-01T11:45:32;10.70;99.90
48019;DHT22;33786;48.690;9.562;2023-04-01T11:58:06;10.70;99.90
48019;DHT22;33786;48.690;9.562;2023-04-01T12:08:50;10.60;99.90
48019;DHT22;33786;48.690;9.562;2023-04-01T12:11:26;10.60;99.90
48019;DHT22;33786;48.690;9.562;2023-04-01T12:34:33;10.90;99.90
48019;DHT22;33786;48.690;9.562;2023-04-01T12:37:08;10.60;99.90
48019;DHT22;33786;48.690;9.562;2023-04-01T12:39:50;10.60;99.90
48019;DHT22;33786;48.690;9.562;2023-04-01T12:44:52;10.80;99.90
48019;DHT22;33786;48.690;9.562;2023-04-01T13:00:48;10.50;99.90
48019;DHT22;33786;48.690;9.562;2023-04-01T13:06:10;10.50;99.90
48019;DHT22;33786;48.690;9.562;2023-04-01T13:21:15;10.90;99.90
48019;DHT22;33786;48.690;9.562;2023-04-01T13:34:25;10.90;99.90
48019;DHT22;33786;48.690;9.562;2023-04-01T13:37:09;11.00;99.90
48019;DHT22;33786;48.690;9.562;2023-04-01T13:39:41;10.80;99.90
48019;DHT22;33786;48.690;9.562;2023-04-01T13:42:28;10.70;99.90
48019;DHT22;33786;48.690;9.562;2023-04-01T13:45:19;10.70;99.90
48019;DHT22;33786;48.690;9.562;2023-04-01T13:58:49;10.70;99.90
48019;DHT22;33786;48.690;9.562;2023-04-01T14:01:34;10.70;99.90
48019;DHT22;33786;48.690;9.562;2023-04-01T14:12:13;11.00;99.90
48019;DHT22;33786;48.690;9.562;2023-04-01T14:20:15;11.10;99.90
48019;DHT22;33786;48.690;9.562;2023-04-01T14:28:12;11.10;99.90
48019;DHT22;33786;48.690;9.562;2023-04-01T14:36:18;11.30;99.90
48019;DHT22;33786;48.690;9.562;2023-04-01T14:39:33;11.40;99.90
48019;DHT22;33786;48.690;9.562;2023-04-01T14:42:20;11.10;99.90
48019;DHT22;33786;48.690;9.562;2023-04-01T14:44:57;11.40;99.90
48019;DHT22;33786;48.690;9.562;2023-04-01T14:47:33;11.40;99.90
48019;DHT22;33786;48.690;9.562;2023-04-01T14:50:28;11.50;99.90
48019;DHT22;33786;48.690;9.562;2023-04-01T14:58:09;11.30;99.90
48019;DHT22;33786;48.690;9.562;2023-04-01T15:03:18;11.20;99.90
48019;DHT22;33786;48.690;9.562;2023-04-01T15:05:52;11.10;99.90
48019;DHT22;33786;48.690;9.562;2023-04-01T15:11:22;10.90;99.90
48019;DHT22;33786;48.690;9.562;2023-04-01T15:14:01;10.90;99.90
48019;DHT22;33786;48.690;9.562;2023-04-01T15:16:39;10.80;99.90
48019;DHT22;33786;48.690;9.562;2023-04-01T15:39:48;10.70;99.90
48019;DHT22;33786;48.690;9.562;2023-04-01T15:49:57;10.50;99.90
48019;DHT22;33786;48.690;9.562;2023-04-01T15:52:49;10.50;99.90
48019;DHT22;33786;48.690;9.562;2023-04-01T15:57:50;10.30;99.90
48019;DHT22;33786;48.690;9.562;2023-04-01T16:00:28;10.30;99.90
48019;DHT22;33786;48.690;9.562;2023-04-01T16:05:41;10.30;99.90
48019;DHT22;33786;48.690;9.562;2023-04-01T16:21:42;10.20;99.90
48019;DHT22;33786;48.690;9.562;2023-04-01T16:26:55;10.20;99.90
48019;DHT22;33786;48.690;9.562;2023-04-01T16:32:09;10.20;99.90
48019;DHT22;33786;48.690;9.562;2023-04-01T16:37:36;10.30;99.90
48019;DHT22;33786;48.690;9.562;2023-04-01T16:42:50;10.30;99.90
48019;DHT22;33786;48.690;9.562;2023-04-01T16:47:49;10.30;99.90
48019;DHT22;33786;48.690;9.562;2023-04-01T16:50:19;10.30;99.90
48019;DHT22;33786;48.690;9.562;2023-04-01T16:53:00;10.40;99.90
48019;DHT22;33786;48.690;9.562;2023-04-01T17:01:12;10.40;99.90
48019;DHT22;33786;48.690;9.562;2023-04-01T17:03:42;10.40;99.90
48019;DHT22;33786;48.690;9.562;2023-04-01T17:27:34;10.20;99.90
48019;DHT22;33786;48.690;9.562;2023-04-01T17:30:06;10.20;99.90
48019;DHT22;33786;48.690;9.562;2023-04-01T17:46:00;10.10;99.90
48019;DHT22;33786;48.690;9.562;2023-04-01T17:56:04;10.20;99.90
48019;DHT22;33786;48.690;9.562;2023-04-01T17:58:39;10.20;99.90
48019;DHT22;33786;48.690;9.562;2023-04-01T18:19:17;10.10;99.90
48019;DHT22;33786;48.690;9.562;2023-04-01T18:21:53;10.10;99.90
48019;DHT22;33786;48.690;9.562;2023-04-01T18:27:36;10.10;99.90
48019;DHT22;33786;48.690;9.562;2023-04-01T18:29:54;10.00;99.90
48019;DHT22;33786;48.690;9.562;2023-04-01T18:32:26;10.10;99.90
48019;DHT22;33786;48.690;9.562;2023-04-01T18:34:59;10.10;99.90
48019;DHT22;33786;48.690;9.562;2023-04-01T18:40:20;10.10;99.90
48019;DHT22;33786;48.690;9.562;2023-04-01T18:47:55;10.10;99.90
48019;DHT22;33786;48.690;9.562;2023-04-01T18:50:28;10.00;99.90
48019;DHT22;33786;48.690;9.562;2023-04-01T18:52:57;9.90;99.90
48019;DHT22;33786;48.690;9.562;2023-04-01T18:58:19;9.80;99.90
48019;DHT22;33786;48.690;9.562;2023-04-01T19:00:49;9.70;99.90
48019;DHT22;33786;48.690;9.562;2023-04-01T19:05:47;9.40;99.90
48019;DHT22;33786;48.690;9.562;2023-04-01T19:15:56;9.20;99.90
48019;DHT22;33786;48.690;9.562;2023-04-01T19:21:14;9.30;99.90
48019;DHT22;33786;48.690;9.562;2023-04-01T19:31:57;9.10;99.90
48019;DHT22;33786;48.690;9.562;2023-04-01T19:37:19;9.10;99.90
48019;DHT22;33786;48.690;9.562;2023-04-01T19:42:28;9.00;99.90
48019;DHT22;33786;48.690;9.562;2023-04-01T19:53:11;8.80;99.90
48019;DHT22;33786;48.690;9.562;2023-04-01T20:00:47;8.70;99.90
48019;DHT22;33786;48.690;9.562;2023-04-01T20:10:52;8.90;99.90
48019;DHT22;33786;48.690;9.562;2023-04-01T20:13:35;8.90;99.90
48019;DHT22;33786;48.690;9.562;2023-04-01T20:16:06;8.90;99.90
48019;DHT22;33786;48.690;9.562;2023-04-01T20:21:21;8.80;99.90
48019;DHT22;33786;48.690;9.562;2023-04-01T20:23:55;8.80;99.90
48019;DHT22;33786;48.690;9.562;2023-04-01T20:26:25;8.60;99.90
48019;DHT22;33786;48.690;9.562;2023-04-01T20:29:36;8.60;99.90
48019;DHT22;33786;48.690;9.562;2023-04-01T20:31:44;8.70;99.90
48019;DHT22;33786;48.690;9.562;2023-04-01T20:39:43;8.60;99.90
48019;DHT22;33786;48.690;9.562;2023-04-01T20:45:06;8.60;99.90
48019;DHT22;33786;48.690;9.562;2023-04-01T20:50:34;8.70;99.90
48019;DHT22;33786;48.690;9.562;2023-04-01T20:56:27;8.70;99.90
48019;DHT22;33786;48.690;9.562;2023-04-01T21:04:18;8.70;99.90
48019;DHT22;33786;48.690;9.562;2023-04-01T21:06:44;8.70;99.90
48019;DHT22;33786;48.690;9.562;2023-04-01T21:14:31;8.60;99.90
48019;DHT22;33786;48.690;9.562;2023-04-01T21:25:28;8.50;99.90
48019;DHT22;33786;48.690;9.562;2023-04-01T21:33:14;8.50;99.90
48019;DHT22;33786;48.690;9.562;2023-04-01T21:35:55;8.60;99.90
48019;DHT22;33786;48.690;9.562;2023-04-01T21:38:28;8.70;99.90
48019;DHT22;33786;48.690;9.562;2023-04-01T21:43:33;8.70;99.90
48019;DHT22;33786;48.690;9.562;2023-04-01T21:48:58;8.80;99.90
48019;DHT22;33786;48.690;9.562;2023-04-01T21:54:07;8.60;99.90
48019;DHT22;33786;48.690;9.562;2023-04-01T22:04:47;8.70;99.90
48019;DHT22;33786;48.690;9.562;2023-04-01T22:07:20;8.50;99.90
48019;DHT22;33786;48.690;9.562;2023-04-01T22:12:20;8.40;99.90
48019;DHT22;33786;48.690;9.562;2023-04-01T22:14:53;8.40;99.90
48019;DHT22;33786;48.690;9.562;2023-04-01T22:19:56;8.30;99.90
48019;DHT22;33786;48.690;9.562;2023-04-01T22:22:49;8.30;99.90
48019;DHT22;33786;48.690;9.562;2023-04-01T22:28:01;8.30;99.90
48019;DHT22;33786;48.690;9.562;2023-04-01T22:30:31;8.30;99.90
48019;DHT22;33786;48.690;9.562;2023-04-01T22:35:49;8.30;99.90
48019;DHT22;33786;48.690;9.562;2023-04-01T22:40:57;8.30;99.90
48019;DHT22;33786;48.690;9.562;2023-04-01T22:46:00;8.40;99.90
48019;DHT22;33786;48.690;9.562;2023-04-01T22:48:31;8.40;99.90
48019;DHT22;33786;48.690;9.562;2023-04-01T22:51:14;8.40;99.90
48019;DHT22;33786;48.690;9.562;2023-04-01T22:53:45;8.40;99.90
48019;DHT22;33786;48.690;9.562;2023-04-01T22:56:15;8.40;99.90
48019;DHT22;33786;48.690;9.562;2023-04-01T22:58:46;8.30;99.90
48019;DHT22;33786;48.690;9.562;2023-04-01T23:01:15;8.30;99.90
48019;DHT22;33786;48.690;9.562;2023-04-01T23:03:45;8.30;99.90
48019;DHT22;33786;48.690;9.562;2023-04-01T23:06:15;8.30;99.90
48019;DHT22;33786;48.690;9.562;2023-04-01T23:08:50;8.30;99.90
48019;DHT22;33786;48.690;9.562;2023-04-01T23:12:03;8.30;99.90
48019;DHT22;33786;48.690;9.562;2023-04-01T23:16:46;8.20;99.90
48019;DHT22;33786;48.690;9.562;2023-04-01T23:29:19;8.20;99.90
48019;DHT22;33786;48.690;9.562;2023-04-01T23:31:56;8.20;99.90
48019;DHT22;33786;48.690;9.562;2023-04-01T23:34:33;8.20;99.90
48019;DHT22;33786;48.690;9.562;2023-04-01T23:37:05;8.30;99.90
48019;DHT22;33786;48.690;9.562;2023-04-01T23:39:38;8.30;99.90
48019;DHT22;33786;48.690;9.562;2023-04-01T23:42:07;8.30;99.90
48019;DHT22;33786;48.690;9.562;2023-04-01T23:44:38;8.30;99.90
48019;DHT22;33786;48.690;9.562;2023-04-01T23:47:06;8.30;99.90
48019;DHT22;33786;48.690;9.562;2023-04-01T23:49:34;8.30;99.90
48019;DHT22;33786;48.690;9.562;2023-04-01T23:54:47;8.20;99.90
48019;DHT22;33786;48.690;9.562;2023-04-01T23:57:16;8.30;99.90
48019;DHT22;33786;48.690;9.562;2023-04-01T23:59:45;8.30;99.90
